sensor_id;sensor_type;location;lat;lon;timestamp;pressure;altitude;pressure_sealevel;temperature;humidity
13124;BME280;6627;50.920;12.050;2024-02-21T00:01:34;99075.91;;;17.12;41.89
13124;BME280;6627;50.920;12.050;2024-02-21T00:04:03;99040.91;;;17.06;41.56
13124;BME280;6627;50.920;12.050;2024-02-21T00:06:30;99102.50;;;17.12;42.44
13124;BME280;6627;50.920;12.050;2024-02-21T00:08:58;99021.47;;;16.99;41.63
13124;BME280;6627;50.920;12.050;2024-02-21T00:11:25;99081.53;;;17.16;41.71
13124;BME280;6627;50.920;12.050;2024-02-21T00:13:54;99043.50;;;16.81;42.15
13124;BME280;6627;50.920;12.050;2024-02-21T00:16:24;99170.34;;;17.81;41.31
13124;BME280;6627;50.920;12.050;2024-02-21T00:18:56;99055.97;;;17.12;41.66
13124;BME280;6627;50.920;12.050;2024-02-21T00:21:25;99145.63;;;18.02;40.48
13124;BME280;6627;50.920;12.050;2024-02-21T00:23:53;99094.44;;;17.49;41.41
13124;BME280;6627;50.920;12.050;2024-02-21T00:26:20;99111.09;;;17.77;40.81
13124;BME280;6627;50.920;12.050;2024-02-21T00:28:48;99053.81;;;17.51;40.94
13124;BME280;6627;50.920;12.050;2024-02-21T00:31:15;99152.03;;;18.06;40.78
13124;BME280;6627;50.920;12.050;2024-02-21T00:33:43;99038.50;;;17.37;41.08
13124;BME280;6627;50.920;12.050;2024-02-21T00:36:15;98953.84;;;16.24;43.05
13124;BME280;6627;50.920;12.050;2024-02-21T00:38:45;99046.09;;;16.99;41.86
13124;BME280;6627;50.920;12.050;2024-02-21T00:41:28;99108.88;;;17.37;42.04
13124;BME280;6627;50.920;12.050;2024-02-21T00:43:58;99126.31;;;18.11;40.49
13124;BME280;6627;50.920;12.050;2024-02-21T00:46:25;99080.34;;;17.71;40.86
13124;BME280;6627;50.920;12.050;2024-02-21T00:48:52;99027.44;;;17.13;41.81
13124;BME280;6627;50.920;12.050;2024-02-21T00:51:21;99036.09;;;17.03;42.06
13124;BME280;6627;50.920;12.050;2024-02-21T00:54:04;99066.91;;;17.12;42.20
13124;BME280;6627;50.920;12.050;2024-02-21T00:56:52;98955.88;;;16.57;42.16
13124;BME280;6627;50.920;12.050;2024-02-21T00:59:20;99018.16;;;16.72;42.57
13124;BME280;6627;50.920;12.050;2024-02-21T01:01:49;99043.50;;;17.02;42.37
13124;BME280;6627;50.920;12.050;2024-02-21T01:04:19;99083.66;;;17.31;42.32
13124;BME280;6627;50.920;12.050;2024-02-21T01:06:49;98976.00;;;16.73;42.01
13124;BME280;6627;50.920;12.050;2024-02-21T01:09:18;98971.47;;;16.35;43.24
13124;BME280;6627;50.920;12.050;2024-02-21T01:11:46;98981.19;;;16.66;42.75
13124;BME280;6627;50.920;12.050;2024-02-21T01:14:13;98937.59;;;16.07;43.56
13124;BME280;6627;50.920;12.050;2024-02-21T01:16:41;98968.66;;;16.23;43.40
13124;BME280;6627;50.920;12.050;2024-02-21T01:19:09;98977.66;;;16.03;44.26
13124;BME280;6627;50.920;12.050;2024-02-21T01:21:39;99017.88;;;16.44;43.57
13124;BME280;6627;50.920;12.050;2024-02-21T01:24:26;99071.81;;;17.06;42.42
13124;BME280;6627;50.920;12.050;2024-02-21T01:26:56;99092.81;;;17.48;41.55
13124;BME280;6627;50.920;12.050;2024-02-21T01:29:24;99053.22;;;17.45;41.37
13124;BME280;6627;50.920;12.050;2024-02-21T01:31:51;99083.00;;;17.47;41.47
13124;BME280;6627;50.920;12.050;2024-02-21T01:34:34;98989.50;;;16.78;42.23
13124;BME280;6627;50.920;12.050;2024-02-21T01:37:03;99061.75;;;17.44;41.54
13124;BME280;6627;50.920;12.050;2024-02-21T01:39:34;98990.00;;;16.93;41.67
13124;BME280;6627;50.920;12.050;2024-02-21T01:42:03;99061.38;;;17.00;42.37
13124;BME280;6627;50.920;12.050;2024-02-21T01:44:33;99020.31;;;16.87;42.38
13124;BME280;6627;50.920;12.050;2024-02-21T01:47:03;98960.66;;;16.60;42.04
13124;BME280;6627;50.920;12.050;2024-02-21T01:49:31;99005.94;;;16.49;43.33
13124;BME280;6627;50.920;12.050;2024-02-21T01:51:59;99125.16;;;17.54;42.19
13124;BME280;6627;50.920;12.050;2024-02-21T01:54:26;99072.81;;;17.35;42.06
13124;BME280;6627;50.920;12.050;2024-02-21T01:56:56;99078.06;;;17.28;42.28
13124;BME280;6627;50.920;12.050;2024-02-21T01:59:25;99041.00;;;17.43;41.39
13124;BME280;6627;50.920;12.050;2024-02-21T02:01:52;98995.63;;;16.75;42.57
13124;BME280;6627;50.920;12.050;2024-02-21T02:04:20;98964.28;;;16.52;42.80
13124;BME280;6627;50.920;12.050;2024-02-21T02:06:51;99074.25;;;17.20;42.50
13124;BME280;6627;50.920;12.050;2024-02-21T02:09:21;98968.84;;;16.60;42.83
13124;BME280;6627;50.920;12.050;2024-02-21T02:11:50;98918.53;;;16.19;43.46
13124;BME280;6627;50.920;12.050;2024-02-21T02:14:18;99032.38;;;16.86;43.13
13124;BME280;6627;50.920;12.050;2024-02-21T02:16:47;99056.44;;;17.14;42.80
13124;BME280;6627;50.920;12.050;2024-02-21T02:19:14;99137.28;;;18.11;41.57
13124;BME280;6627;50.920;12.050;2024-02-21T02:21:46;99104.38;;;18.35;40.41
13124;BME280;6627;50.920;12.050;2024-02-21T02:24:26;98890.91;;;16.54;42.43
13124;BME280;6627;50.920;12.050;2024-02-21T02:26:55;98834.72;;;15.90;42.79
13124;BME280;6627;50.920;12.050;2024-02-21T02:29:23;99094.75;;;17.14;43.41
13124;BME280;6627;50.920;12.050;2024-02-21T02:31:52;99013.50;;;16.73;43.62
13124;BME280;6627;50.920;12.050;2024-02-21T02:34:22;99066.34;;;17.52;42.28
13124;BME280;6627;50.920;12.050;2024-02-21T02:36:51;99120.16;;;18.38;40.99
13124;BME280;6627;50.920;12.050;2024-02-21T02:39:19;99044.22;;;17.45;42.43
13124;BME280;6627;50.920;12.050;2024-02-21T02:41:47;99094.03;;;17.38;43.63
13124;BME280;6627;50.920;12.050;2024-02-21T02:44:15;98994.81;;;17.08;42.86
13124;BME280;6627;50.920;12.050;2024-02-21T02:46:52;98966.94;;;16.60;43.77
13124;BME280;6627;50.920;12.050;2024-02-21T02:49:21;99099.31;;;17.43;43.79
13124;BME280;6627;50.920;12.050;2024-02-21T02:51:51;99028.78;;;16.23;46.26
13124;BME280;6627;50.920;12.050;2024-02-21T02:54:19;99088.31;;;16.68;45.78
13124;BME280;6627;50.920;12.050;2024-02-21T02:56:50;99113.97;;;16.84;45.62
13124;BME280;6627;50.920;12.050;2024-02-21T02:59:17;99177.34;;;17.70;44.19
13124;BME280;6627;50.920;12.050;2024-02-21T03:01:44;99230.00;;;17.34;46.00
13124;BME280;6627;50.920;12.050;2024-02-21T03:04:11;99061.91;;;16.51;45.41
13124;BME280;6627;50.920;12.050;2024-02-21T03:06:55;99164.16;;;16.29;47.50
13124;BME280;6627;50.920;12.050;2024-02-21T03:09:25;99286.50;;;17.38;46.33
13124;BME280;6627;50.920;12.050;2024-02-21T03:11:56;99094.28;;;15.55;48.21
13124;BME280;6627;50.920;12.050;2024-02-21T03:14:30;99188.19;;;15.89;48.95
13124;BME280;6627;50.920;12.050;2024-02-21T03:16:59;99260.88;;;16.46;48.37
13124;BME280;6627;50.920;12.050;2024-02-21T03:19:28;99315.19;;;16.73;48.65
13124;BME280;6627;50.920;12.050;2024-02-21T03:21:57;99318.22;;;17.39;46.47
13124;BME280;6627;50.920;12.050;2024-02-21T03:24:26;99217.56;;;16.18;48.41
13124;BME280;6627;50.920;12.050;2024-02-21T03:26:55;99260.88;;;16.46;48.79
13124;BME280;6627;50.920;12.050;2024-02-21T03:29:23;99320.84;;;17.06;47.78
13124;BME280;6627;50.920;12.050;2024-02-21T03:31:53;99261.94;;;15.98;50.08
13124;BME280;6627;50.920;12.050;2024-02-21T03:34:21;99277.03;;;15.34;52.23
13124;BME280;6627;50.920;12.050;2024-02-21T03:36:50;99271.47;;;15.00;52.84
13124;BME280;6627;50.920;12.050;2024-02-21T03:39:19;99362.88;;;16.20;51.01
13124;BME280;6627;50.920;12.050;2024-02-21T03:41:49;99322.63;;;16.47;49.11
13124;BME280;6627;50.920;12.050;2024-02-21T03:44:19;99261.13;;;16.70;47.67
13124;BME280;6627;50.920;12.050;2024-02-21T03:46:47;99209.41;;;15.92;48.49
13124;BME280;6627;50.920;12.050;2024-02-21T03:49:14;99330.94;;;17.14;47.49
13124;BME280;6627;50.920;12.050;2024-02-21T03:51:59;99300.00;;;17.44;46.18
13124;BME280;6627;50.920;12.050;2024-02-21T03:54:29;99279.75;;;17.15;46.68
13124;BME280;6627;50.920;12.050;2024-02-21T03:56:58;99243.59;;;16.62;47.64
13124;BME280;6627;50.920;12.050;2024-02-21T03:59:29;99317.63;;;17.34;47.07
13124;BME280;6627;50.920;12.050;2024-02-21T04:01:58;99318.22;;;17.19;47.39
13124;BME280;6627;50.920;12.050;2024-02-21T04:04:28;99279.31;;;16.75;47.63
13124;BME280;6627;50.920;12.050;2024-02-21T04:06:55;99186.00;;;16.29;47.53
13124;BME280;6627;50.920;12.050;2024-02-21T04:09:27;99189.81;;;15.99;48.30
13124;BME280;6627;50.920;12.050;2024-02-21T04:11:55;99240.69;;;16.29;48.15
13124;BME280;6627;50.920;12.050;2024-02-21T04:14:25;99328.41;;;17.09;47.96
13124;BME280;6627;50.920;12.050;2024-02-21T04:16:55;99179.34;;;16.01;48.18
13124;BME280;6627;50.920;12.050;2024-02-21T04:19:25;99197.50;;;16.05;48.65
13124;BME280;6627;50.920;12.050;2024-02-21T04:21:55;99222.31;;;16.38;48.22
13124;BME280;6627;50.920;12.050;2024-02-21T04:24:22;99213.47;;;16.33;48.34
13124;BME280;6627;50.920;12.050;2024-02-21T04:26:49;99224.34;;;16.12;49.13
13124;BME280;6627;50.920;12.050;2024-02-21T04:29:17;99210.72;;;16.42;48.02
13124;BME280;6627;50.920;12.050;2024-02-21T04:32:03;99182.56;;;16.03;48.53
13124;BME280;6627;50.920;12.050;2024-02-21T04:34:31;99241.47;;;16.68;48.02
13124;BME280;6627;50.920;12.050;2024-02-21T04:37:00;99188.03;;;16.03;48.67
13124;BME280;6627;50.920;12.050;2024-02-21T04:39:30;99188.63;;;16.17;48.44
13124;BME280;6627;50.920;12.050;2024-02-21T04:41:57;99192.97;;;16.56;47.59
13124;BME280;6627;50.920;12.050;2024-02-21T04:44:26;99260.38;;;16.90;47.98
13124;BME280;6627;50.920;12.050;2024-02-21T04:47:10;99161.88;;;16.31;47.74
13124;BME280;6627;50.920;12.050;2024-02-21T04:49:39;99109.41;;;15.18;49.92
13124;BME280;6627;50.920;12.050;2024-02-21T04:52:07;99266.78;;;16.65;48.85
13124;BME280;6627;50.920;12.050;2024-02-21T04:54:35;99214.09;;;15.74;50.74
13124;BME280;6627;50.920;12.050;2024-02-21T04:57:19;99167.38;;;15.24;50.88
13124;BME280;6627;50.920;12.050;2024-02-21T04:59:49;99319.38;;;16.62;50.21
13124;BME280;6627;50.920;12.050;2024-02-21T05:02:18;99277.72;;;17.54;46.95
13124;BME280;6627;50.920;12.050;2024-02-21T05:04:51;99166.06;;;15.56;50.19
13124;BME280;6627;50.920;12.050;2024-02-21T05:07:21;99165.13;;;15.34;51.00
13124;BME280;6627;50.920;12.050;2024-02-21T05:09:48;99299.88;;;17.61;47.36
13124;BME280;6627;50.920;12.050;2024-02-21T05:12:15;99253.78;;;17.21;47.70
13124;BME280;6627;50.920;12.050;2024-02-21T05:14:44;99280.22;;;16.87;49.00
13124;BME280;6627;50.920;12.050;2024-02-21T05:17:12;99255.19;;;17.27;47.49
13124;BME280;6627;50.920;12.050;2024-02-21T05:19:41;99133.41;;;16.62;47.07
13124;BME280;6627;50.920;12.050;2024-02-21T05:22:11;99236.84;;;17.49;46.67
13124;BME280;6627;50.920;12.050;2024-02-21T05:24:39;99207.31;;;17.75;45.58
13124;BME280;6627;50.920;12.050;2024-02-21T05:27:09;99066.03;;;16.57;46.48
13124;BME280;6627;50.920;12.050;2024-02-21T05:29:39;99081.38;;;15.91;48.44
13124;BME280;6627;50.920;12.050;2024-02-21T05:32:07;99112.38;;;15.86;49.12
13124;BME280;6627;50.920;12.050;2024-02-21T05:34:34;99177.50;;;15.41;51.54
13124;BME280;6627;50.920;12.050;2024-02-21T05:37:03;99191.38;;;16.08;49.68
13124;BME280;6627;50.920;12.050;2024-02-21T05:39:31;99164.25;;;15.95;49.47
13124;BME280;6627;50.920;12.050;2024-02-21T05:42:01;99166.91;;;16.50;48.20
13124;BME280;6627;50.920;12.050;2024-02-21T05:44:31;99156.81;;;16.42;48.29
13124;BME280;6627;50.920;12.050;2024-02-21T05:47:01;99152.44;;;16.50;48.23
13124;BME280;6627;50.920;12.050;2024-02-21T05:49:30;99164.16;;;16.88;47.57
13124;BME280;6627;50.920;12.050;2024-02-21T05:51:58;99095.31;;;16.57;47.19
13124;BME280;6627;50.920;12.050;2024-02-21T05:54:26;99139.06;;;16.57;47.80
13124;BME280;6627;50.920;12.050;2024-02-21T05:56:53;98923.78;;;15.14;47.57
13124;BME280;6627;50.920;12.050;2024-02-21T05:59:21;99106.53;;;16.05;48.54
13124;BME280;6627;50.920;12.050;2024-02-21T06:01:55;99083.44;;;16.23;47.99
13124;BME280;6627;50.920;12.050;2024-02-21T06:04:26;99067.81;;;16.03;47.76
13124;BME280;6627;50.920;12.050;2024-02-21T06:06:56;99141.16;;;17.10;46.10
13124;BME280;6627;50.920;12.050;2024-02-21T06:09:27;99100.59;;;16.62;46.87
13124;BME280;6627;50.920;12.050;2024-02-21T06:11:57;99038.97;;;16.44;46.09
13124;BME280;6627;50.920;12.050;2024-02-21T06:14:25;99052.94;;;16.21;46.88
13124;BME280;6627;50.920;12.050;2024-02-21T06:16:52;99149.94;;;17.70;44.55
13124;BME280;6627;50.920;12.050;2024-02-21T06:19:19;99058.72;;;16.70;45.72
13124;BME280;6627;50.920;12.050;2024-02-21T06:21:47;98967.38;;;15.70;47.27
13124;BME280;6627;50.920;12.050;2024-02-21T06:24:35;99106.78;;;17.01;45.84
13124;BME280;6627;50.920;12.050;2024-02-21T06:27:04;99050.81;;;16.27;46.76
13124;BME280;6627;50.920;12.050;2024-02-21T06:29:34;99013.75;;;16.38;45.81
13124;BME280;6627;50.920;12.050;2024-02-21T06:32:05;98998.28;;;15.92;46.90
13124;BME280;6627;50.920;12.050;2024-02-21T06:34:34;99033.69;;;16.38;46.24
13124;BME280;6627;50.920;12.050;2024-02-21T06:37:18;99055.47;;;16.26;46.90
13124;BME280;6627;50.920;12.050;2024-02-21T06:40:03;99088.25;;;16.56;46.68
13124;BME280;6627;50.920;12.050;2024-02-21T06:42:31;99043.81;;;16.59;45.71
13124;BME280;6627;50.920;12.050;2024-02-21T06:44:58;99097.56;;;17.05;45.29
13124;BME280;6627;50.920;12.050;2024-02-21T06:47:28;99087.94;;;16.99;45.14
13124;BME280;6627;50.920;12.050;2024-02-21T06:49:58;99031.91;;;16.43;45.72
13124;BME280;6627;50.920;12.050;2024-02-21T06:52:26;99121.06;;;16.85;46.05
13124;BME280;6627;50.920;12.050;2024-02-21T06:54:54;99153.13;;;17.39;45.65
13124;BME280;6627;50.920;12.050;2024-02-21T06:57:23;98937.53;;;15.65;46.57
13124;BME280;6627;50.920;12.050;2024-02-21T06:59:51;99027.94;;;16.31;46.17
13124;BME280;6627;50.920;12.050;2024-02-21T07:02:20;99097.84;;;16.62;46.61
13124;BME280;6627;50.920;12.050;2024-02-21T07:04:48;99042.00;;;16.21;47.02
13124;BME280;6627;50.920;12.050;2024-02-21T07:07:16;98954.97;;;15.34;47.61
13124;BME280;6627;50.920;12.050;2024-02-21T07:09:45;99104.16;;;15.95;48.25
13124;BME280;6627;50.920;12.050;2024-02-21T07:12:17;99105.88;;;16.37;47.18
13124;BME280;6627;50.920;12.050;2024-02-21T07:14:46;99115.88;;;16.33;47.41
13124;BME280;6627;50.920;12.050;2024-02-21T07:17:16;99086.06;;;16.11;47.61
13124;BME280;6627;50.920;12.050;2024-02-21T07:19:43;99132.84;;;16.77;46.48
13124;BME280;6627;50.920;12.050;2024-02-21T07:22:10;99171.03;;;16.95;46.42
13124;BME280;6627;50.920;12.050;2024-02-21T07:24:38;99081.56;;;16.15;47.16
13124;BME280;6627;50.920;12.050;2024-02-21T07:27:15;99041.69;;;15.84;47.27
13124;BME280;6627;50.920;12.050;2024-02-21T07:29:43;99167.59;;;17.06;46.37
13124;BME280;6627;50.920;12.050;2024-02-21T07:32:17;99120.97;;;16.44;46.92
13124;BME280;6627;50.920;12.050;2024-02-21T07:34:47;99134.91;;;16.51;46.99
13124;BME280;6627;50.920;12.050;2024-02-21T07:37:17;99144.63;;;16.69;46.56
13124;BME280;6627;50.920;12.050;2024-02-21T07:39:46;99149.16;;;16.65;46.50
13124;BME280;6627;50.920;12.050;2024-02-21T07:42:13;99112.09;;;16.17;47.19
13124;BME280;6627;50.920;12.050;2024-02-21T07:44:41;99117.63;;;16.38;46.93
13124;BME280;6627;50.920;12.050;2024-02-21T07:47:08;99145.41;;;17.41;45.35
13124;BME280;6627;50.920;12.050;2024-02-21T07:49:44;99086.94;;;17.04;45.30
13124;BME280;6627;50.920;12.050;2024-02-21T07:52:20;99170.81;;;17.62;45.29
13124;BME280;6627;50.920;12.050;2024-02-21T07:54:47;99078.72;;;17.04;45.50
13124;BME280;6627;50.920;12.050;2024-02-21T07:57:15;99114.84;;;17.51;44.62
13124;BME280;6627;50.920;12.050;2024-02-21T07:59:45;99069.72;;;17.03;45.41
13124;BME280;6627;50.920;12.050;2024-02-21T08:02:16;99137.59;;;17.31;45.08
13124;BME280;6627;50.920;12.050;2024-02-21T08:04:45;99022.03;;;16.71;45.18
13124;BME280;6627;50.920;12.050;2024-02-21T08:07:13;99155.72;;;17.56;44.84
13124;BME280;6627;50.920;12.050;2024-02-21T08:09:42;99152.31;;;17.93;44.07
13124;BME280;6627;50.920;12.050;2024-02-21T08:12:09;99036.59;;;16.84;45.00
13124;BME280;6627;50.920;12.050;2024-02-21T08:14:39;98965.22;;;16.56;44.46
13124;BME280;6627;50.920;12.050;2024-02-21T08:17:09;99047.41;;;16.80;45.04
13124;BME280;6627;50.920;12.050;2024-02-21T08:19:39;99101.03;;;17.14;45.00
13124;BME280;6627;50.920;12.050;2024-02-21T08:22:10;99004.88;;;15.91;46.35
13124;BME280;6627;50.920;12.050;2024-02-21T08:24:38;99121.91;;;16.98;45.30
13124;BME280;6627;50.920;12.050;2024-02-21T08:27:06;99131.56;;;17.58;44.08
13124;BME280;6627;50.920;12.050;2024-02-21T08:29:33;99077.63;;;16.54;46.09
13124;BME280;6627;50.920;12.050;2024-02-21T08:32:01;98962.22;;;15.77;46.08
13124;BME280;6627;50.920;12.050;2024-02-21T08:34:44;99042.06;;;16.33;45.86
13124;BME280;6627;50.920;12.050;2024-02-21T08:37:16;99042.53;;;16.35;45.84
13124;BME280;6627;50.920;12.050;2024-02-21T08:39:47;99083.41;;;17.03;45.05
13124;BME280;6627;50.920;12.050;2024-02-21T08:42:17;98982.34;;;15.94;46.30
13124;BME280;6627;50.920;12.050;2024-02-21T08:44:46;99079.13;;;16.52;46.02
13124;BME280;6627;50.920;12.050;2024-02-21T08:47:13;99054.44;;;16.60;45.28
13124;BME280;6627;50.920;12.050;2024-02-21T08:49:41;98909.00;;;15.54;46.08
13124;BME280;6627;50.920;12.050;2024-02-21T08:52:08;98996.91;;;16.06;46.04
13124;BME280;6627;50.920;12.050;2024-02-21T08:54:37;99063.53;;;16.94;45.06
13124;BME280;6627;50.920;12.050;2024-02-21T08:57:04;99032.72;;;16.85;44.71
13124;BME280;6627;50.920;12.050;2024-02-21T08:59:34;99076.16;;;17.40;44.21
13124;BME280;6627;50.920;12.050;2024-02-21T09:02:04;99043.00;;;17.21;44.29
13124;BME280;6627;50.920;12.050;2024-02-21T09:04:36;98962.28;;;16.61;44.46
13124;BME280;6627;50.920;12.050;2024-02-21T09:07:05;99022.31;;;16.78;45.19
13124;BME280;6627;50.920;12.050;2024-02-21T09:09:33;98971.75;;;16.43;45.33
13124;BME280;6627;50.920;12.050;2024-02-21T09:12:02;99025.09;;;16.49;45.97
13124;BME280;6627;50.920;12.050;2024-02-21T09:14:48;98978.09;;;16.34;45.63
13124;BME280;6627;50.920;12.050;2024-02-21T09:17:16;99047.03;;;16.61;45.97
13124;BME280;6627;50.920;12.050;2024-02-21T09:19:45;99041.22;;;16.62;46.00
13124;BME280;6627;50.920;12.050;2024-02-21T09:22:12;99046.19;;;16.69;45.68
13124;BME280;6627;50.920;12.050;2024-02-21T09:24:41;99025.38;;;16.56;45.53
13124;BME280;6627;50.920;12.050;2024-02-21T09:27:12;99029.91;;;16.94;45.06
13124;BME280;6627;50.920;12.050;2024-02-21T09:29:42;98959.31;;;16.24;45.68
13124;BME280;6627;50.920;12.050;2024-02-21T09:32:10;99053.38;;;16.95;45.44
13124;BME280;6627;50.920;12.050;2024-02-21T09:34:37;99034.81;;;16.37;46.50
13124;BME280;6627;50.920;12.050;2024-02-21T09:37:06;98953.63;;;16.38;45.45
13124;BME280;6627;50.920;12.050;2024-02-21T09:39:34;99045.34;;;16.69;46.05
13124;BME280;6627;50.920;12.050;2024-02-21T09:42:06;99038.66;;;17.20;45.28
13124;BME280;6627;50.920;12.050;2024-02-21T09:44:38;99052.84;;;17.22;45.08
13124;BME280;6627;50.920;12.050;2024-02-21T09:47:12;99012.19;;;16.79;45.62
13124;BME280;6627;50.920;12.050;2024-02-21T09:49:48;99043.03;;;17.33;45.09
13124;BME280;6627;50.920;12.050;2024-02-21T09:52:16;99045.72;;;17.21;45.26
13124;BME280;6627;50.920;12.050;2024-02-21T09:54:44;99073.56;;;17.56;44.89
13124;BME280;6627;50.920;12.050;2024-02-21T09:57:11;99080.75;;;17.94;44.13
13124;BME280;6627;50.920;12.050;2024-02-21T09:59:41;99087.84;;;17.62;44.69
13124;BME280;6627;50.920;12.050;2024-02-21T10:02:08;99102.31;;;17.96;44.11
13124;BME280;6627;50.920;12.050;2024-02-21T10:04:40;99036.84;;;17.24;44.84
13124;BME280;6627;50.920;12.050;2024-02-21T10:07:10;99112.22;;;17.88;44.58
13124;BME280;6627;50.920;12.050;2024-02-21T10:09:41;99019.94;;;17.10;45.32
13124;BME280;6627;50.920;12.050;2024-02-21T10:12:14;99063.41;;;17.57;44.99
13124;BME280;6627;50.920;12.050;2024-02-21T10:14:46;98967.97;;;16.89;44.93
13124;BME280;6627;50.920;12.050;2024-02-21T10:17:17;99043.78;;;17.22;45.13
13124;BME280;6627;50.920;12.050;2024-02-21T10:19:46;99026.59;;;17.33;44.97
13124;BME280;6627;50.920;12.050;2024-02-21T10:22:15;99132.72;;;18.15;44.36
13124;BME280;6627;50.920;12.050;2024-02-21T10:25:07;99015.47;;;17.05;45.53
13124;BME280;6627;50.920;12.050;2024-02-21T10:27:38;98994.53;;;16.88;45.27
13124;BME280;6627;50.920;12.050;2024-02-21T10:30:14;99095.34;;;17.53;45.20
13124;BME280;6627;50.920;12.050;2024-02-21T10:32:50;99073.72;;;17.39;45.42
13124;BME280;6627;50.920;12.050;2024-02-21T10:35:27;98989.94;;;16.80;45.73
13124;BME280;6627;50.920;12.050;2024-02-21T10:37:55;99131.75;;;17.86;45.47
13124;BME280;6627;50.920;12.050;2024-02-21T10:40:25;99139.81;;;18.40;44.57
13124;BME280;6627;50.920;12.050;2024-02-21T10:42:57;99112.38;;;18.40;44.27
13124;BME280;6627;50.920;12.050;2024-02-21T10:45:30;99093.63;;;18.55;43.89
13124;BME280;6627;50.920;12.050;2024-02-21T10:48:08;99066.03;;;18.11;44.57
13124;BME280;6627;50.920;12.050;2024-02-21T10:50:55;99099.44;;;18.65;43.79
13124;BME280;6627;50.920;12.050;2024-02-21T10:53:35;99168.22;;;19.62;42.61
13124;BME280;6627;50.920;12.050;2024-02-21T10:56:18;99052.34;;;18.76;43.21
13124;BME280;6627;50.920;12.050;2024-02-21T10:58:49;99140.63;;;19.46;42.76
13124;BME280;6627;50.920;12.050;2024-02-21T11:01:33;99119.19;;;19.36;42.73
13124;BME280;6627;50.920;12.050;2024-02-21T11:04:04;98932.41;;;17.96;43.59
13124;BME280;6627;50.920;12.050;2024-02-21T11:06:34;98920.91;;;18.30;42.46
13124;BME280;6627;50.920;12.050;2024-02-21T11:09:06;99009.25;;;19.04;42.35
13124;BME280;6627;50.920;12.050;2024-02-21T11:11:34;98957.72;;;18.57;42.54
13124;BME280;6627;50.920;12.050;2024-02-21T11:14:08;99130.94;;;20.24;41.15
13124;BME280;6627;50.920;12.050;2024-02-21T11:16:41;98979.63;;;19.41;41.22
13124;BME280;6627;50.920;12.050;2024-02-21T11:19:20;98980.72;;;19.84;40.26
13124;BME280;6627;50.920;12.050;2024-02-21T11:21:50;98968.13;;;19.83;40.47
13124;BME280;6627;50.920;12.050;2024-02-21T11:24:27;98956.00;;;20.39;38.75
13124;BME280;6627;50.920;12.050;2024-02-21T11:26:55;98871.38;;;19.78;39.89
13124;BME280;6627;50.920;12.050;2024-02-21T11:29:26;98874.94;;;19.78;39.94
13124;BME280;6627;50.920;12.050;2024-02-21T11:32:02;98703.88;;;18.60;40.19
13124;BME280;6627;50.920;12.050;2024-02-21T11:34:30;98805.66;;;19.18;40.24
13124;BME280;6627;50.920;12.050;2024-02-21T11:37:00;98884.94;;;19.86;40.15
13124;BME280;6627;50.920;12.050;2024-02-21T11:39:30;98891.81;;;20.51;38.77
13124;BME280;6627;50.920;12.050;2024-02-21T11:42:02;98756.31;;;19.57;39.01
13124;BME280;6627;50.920;12.050;2024-02-21T11:44:31;98690.94;;;19.11;39.41
13124;BME280;6627;50.920;12.050;2024-02-21T11:46:59;98712.22;;;19.14;39.74
13124;BME280;6627;50.920;12.050;2024-02-21T11:49:45;98750.44;;;19.39;39.59
13124;BME280;6627;50.920;12.050;2024-02-21T11:52:32;98595.94;;;18.36;40.20
13124;BME280;6627;50.920;12.050;2024-02-21T11:55:03;98573.84;;;18.29;40.00
13124;BME280;6627;50.920;12.050;2024-02-21T11:57:31;98731.84;;;19.52;39.55
13124;BME280;6627;50.920;12.050;2024-02-21T12:00:12;98634.75;;;18.70;39.97
13124;BME280;6627;50.920;12.050;2024-02-21T12:02:45;98638.66;;;18.53;40.22
13124;BME280;6627;50.920;12.050;2024-02-21T12:05:13;98706.94;;;19.25;39.47
13124;BME280;6627;50.920;12.050;2024-02-21T12:07:41;98707.09;;;19.32;39.25
13124;BME280;6627;50.920;12.050;2024-02-21T12:10:10;98764.34;;;20.04;38.56
13124;BME280;6627;50.920;12.050;2024-02-21T12:12:38;98680.69;;;19.63;38.49
13124;BME280;6627;50.920;12.050;2024-02-21T12:15:14;98709.16;;;19.74;38.79
13124;BME280;6627;50.920;12.050;2024-02-21T12:17:42;98673.94;;;19.41;38.84
13124;BME280;6627;50.920;12.050;2024-02-21T12:20:12;98717.81;;;19.96;38.15
13124;BME280;6627;50.920;12.050;2024-02-21T12:22:43;98642.66;;;19.65;37.86
13124;BME280;6627;50.920;12.050;2024-02-21T12:25:16;98411.50;;;18.20;38.24
13124;BME280;6627;50.920;12.050;2024-02-21T12:27:45;98535.56;;;19.26;37.30
13124;BME280;6627;50.920;12.050;2024-02-21T12:30:12;98460.16;;;19.01;37.02
13124;BME280;6627;50.920;12.050;2024-02-21T12:32:39;98464.94;;;18.84;37.60
13124;BME280;6627;50.920;12.050;2024-02-21T12:35:08;98501.69;;;19.41;36.75
13124;BME280;6627;50.920;12.050;2024-02-21T12:37:39;98413.09;;;18.79;37.13
13124;BME280;6627;50.920;12.050;2024-02-21T12:40:09;98512.59;;;19.80;36.14
13124;BME280;6627;50.920;12.050;2024-02-21T12:42:39;98365.28;;;19.00;36.21
13124;BME280;6627;50.920;12.050;2024-02-21T12:45:08;98435.66;;;19.34;36.14
13124;BME280;6627;50.920;12.050;2024-02-21T12:47:51;98346.16;;;19.07;36.02
13124;BME280;6627;50.920;12.050;2024-02-21T12:50:18;98398.72;;;19.55;35.40
13124;BME280;6627;50.920;12.050;2024-02-21T12:52:47;98228.41;;;18.29;36.44
13124;BME280;6627;50.920;12.050;2024-02-21T12:55:15;98392.38;;;19.51;35.68
13124;BME280;6627;50.920;12.050;2024-02-21T12:58:03;98443.91;;;19.80;35.58
13124;BME280;6627;50.920;12.050;2024-02-21T13:00:34;98414.00;;;20.05;34.45
13124;BME280;6627;50.920;12.050;2024-02-21T13:03:02;98292.44;;;19.06;35.70
13124;BME280;6627;50.920;12.050;2024-02-21T13:05:32;98305.31;;;19.28;35.18
13124;BME280;6627;50.920;12.050;2024-02-21T13:08:05;98390.38;;;20.01;35.01
13124;BME280;6627;50.920;12.050;2024-02-21T13:10:33;98326.88;;;19.53;35.15
13124;BME280;6627;50.920;12.050;2024-02-21T13:13:01;98297.41;;;19.76;34.24
13124;BME280;6627;50.920;12.050;2024-02-21T13:15:28;98226.13;;;19.30;34.47
13124;BME280;6627;50.920;12.050;2024-02-21T13:17:56;98317.47;;;19.80;34.91